sensor_id;sensor_type;location;lat;lon;timestamp;P1;durP1;ratioP1;P2;durP2;ratioP2
38529;SDS011;24301;54.332;48.386;2023-12-20T00:01:54;1.33;;;0.70;;
38529;SDS011;24301;54.332;48.386;2023-12-20T00:04:21;0.83;;;0.63;;
38529;SDS011;24301;54.332;48.386;2023-12-20T00:06:47;0.97;;;0.70;;
38529;SDS011;24301;54.332;48.386;2023-12-20T00:09:13;0.80;;;0.77;;
38529;SDS011;24301;54.332;48.386;2023-12-20T00:11:38;0.60;;;0.60;;
38529;SDS011;24301;54.332;48.386;2023-12-20T00:14:07;1.30;;;0.80;;
38529;SDS011;24301;54.332;48.386;2023-12-20T00:16:33;1.80;;;0.90;;
38529;SDS011;24301;54.332;48.386;2023-12-20T00:18:59;2.30;;;1.00;;
38529;SDS011;24301;54.332;48.386;2023-12-20T00:21:25;0.83;;;0.50;;
38529;SDS011;24301;54.332;48.386;2023-12-20T00:23:51;1.30;;;0.90;;
38529;SDS011;24301;54.332;48.386;2023-12-20T00:26:16;0.70;;;0.70;;
38529;SDS011;24301;54.332;48.386;2023-12-20T00:28:43;0.70;;;0.70;;
38529;SDS011;24301;54.332;48.386;2023-12-20T00:31:08;0.60;;;0.60;;
38529;SDS011;24301;54.332;48.386;2023-12-20T00:33:35;0.70;;;0.60;;
38529;SDS011;24301;54.332;48.386;2023-12-20T00:36:01;0.67;;;0.60;;
38529;SDS011;24301;54.332;48.386;2023-12-20T00:38:28;0.50;;;0.50;;
38529;SDS011;24301;54.332;48.386;2023-12-20T00:40:53;0.60;;;0.60;;
38529;SDS011;24301;54.332;48.386;2023-12-20T00:43:19;1.00;;;0.70;;
38529;SDS011;24301;54.332;48.386;2023-12-20T00:45:45;0.83;;;0.63;;
38529;SDS011;24301;54.332;48.386;2023-12-20T00:48:11;0.60;;;0.60;;
38529;SDS011;24301;54.332;48.386;2023-12-20T00:50:37;0.97;;;0.57;;
38529;SDS011;24301;54.332;48.386;2023-12-20T00:53:03;1.03;;;0.60;;
38529;SDS011;24301;54.332;48.386;2023-12-20T00:55:29;0.70;;;0.63;;
38529;SDS011;24301;54.332;48.386;2023-12-20T00:57:55;0.70;;;0.70;;
38529;SDS011;24301;54.332;48.386;2023-12-20T01:00:21;0.83;;;0.83;;
38529;SDS011;24301;54.332;48.386;2023-12-20T01:02:47;0.60;;;0.60;;
38529;SDS011;24301;54.332;48.386;2023-12-20T01:05:15;0.60;;;0.60;;
38529;SDS011;24301;54.332;48.386;2023-12-20T01:07:41;0.63;;;0.60;;
38529;SDS011;24301;54.332;48.386;2023-12-20T01:10:07;0.77;;;0.77;;
38529;SDS011;24301;54.332;48.386;2023-12-20T01:12:33;0.60;;;0.60;;
38529;SDS011;24301;54.332;48.386;2023-12-20T01:14:59;0.70;;;0.70;;
38529;SDS011;24301;54.332;48.386;2023-12-20T01:17:25;1.03;;;0.70;;
38529;SDS011;24301;54.332;48.386;2023-12-20T01:19:51;0.70;;;0.70;;
38529;SDS011;24301;54.332;48.386;2023-12-20T01:22:17;0.70;;;0.70;;
38529;SDS011;24301;54.332;48.386;2023-12-20T01:24:43;0.60;;;0.60;;
38529;SDS011;24301;54.332;48.386;2023-12-20T01:27:09;0.60;;;0.60;;
38529;SDS011;24301;54.332;48.386;2023-12-20T01:29:34;0.77;;;0.70;;
38529;SDS011;24301;54.332;48.386;2023-12-20T01:32:00;0.73;;;0.60;;
38529;SDS011;24301;54.332;48.386;2023-12-20T01:34:31;0.87;;;0.70;;
38529;SDS011;24301;54.332;48.386;2023-12-20T01:36:58;0.67;;;0.60;;
38529;SDS011;24301;54.332;48.386;2023-12-20T01:39:25;0.90;;;0.60;;
38529;SDS011;24301;54.332;48.386;2023-12-20T01:41:51;0.50;;;0.50;;
38529;SDS011;24301;54.332;48.386;2023-12-20T01:44:17;0.80;;;0.80;;
38529;SDS011;24301;54.332;48.386;2023-12-20T01:46:43;0.63;;;0.63;;
38529;SDS011;24301;54.332;48.386;2023-12-20T01:49:14;0.60;;;0.60;;
38529;SDS011;24301;54.332;48.386;2023-12-20T01:51:42;1.70;;;1.60;;
38529;SDS011;24301;54.332;48.386;2023-12-20T01:54:09;0.57;;;0.57;;
38529;SDS011;24301;54.332;48.386;2023-12-20T01:56:38;11.43;;;1.53;;
38529;SDS011;24301;54.332;48.386;2023-12-20T01:59:06;0.60;;;0.60;;
38529;SDS011;24301;54.332;48.386;2023-12-20T02:01:35;0.60;;;0.60;;
38529;SDS011;24301;54.332;48.386;2023-12-20T02:04:01;0.67;;;0.67;;
38529;SDS011;24301;54.332;48.386;2023-12-20T02:06:29;0.60;;;0.60;;
38529;SDS011;24301;54.332;48.386;2023-12-20T02:08:58;0.67;;;0.67;;
38529;SDS011;24301;54.332;48.386;2023-12-20T02:11:26;0.50;;;0.50;;
38529;SDS011;24301;54.332;48.386;2023-12-20T02:16:25;0.50;;;0.50;;
38529;SDS011;24301;54.332;48.386;2023-12-20T02:18:56;1.13;;;1.00;;
38529;SDS011;24301;54.332;48.386;2023-12-20T02:21:31;0.73;;;0.73;;
38529;SDS011;24301;54.332;48.386;2023-12-20T02:23:59;1.27;;;0.60;;
38529;SDS011;24301;54.332;48.386;2023-12-20T02:26:26;0.50;;;0.50;;
38529;SDS011;24301;54.332;48.386;2023-12-20T02:28:53;0.90;;;0.60;;
38529;SDS011;24301;54.332;48.386;2023-12-20T02:31:22;1.03;;;0.67;;
38529;SDS011;24301;54.332;48.386;2023-12-20T02:33:49;0.60;;;0.60;;
38529;SDS011;24301;54.332;48.386;2023-12-20T02:36:15;1.07;;;0.90;;
38529;SDS011;24301;54.332;48.386;2023-12-20T02:38:41;0.63;;;0.63;;
38529;SDS011;24301;54.332;48.386;2023-12-20T02:41:07;0.80;;;0.70;;
38529;SDS011;24301;54.332;48.386;2023-12-20T02:43:33;1.10;;;0.70;;
38529;SDS011;24301;54.332;48.386;2023-12-20T02:46:00;1.63;;;0.93;;
38529;SDS011;24301;54.332;48.386;2023-12-20T02:48:26;1.13;;;1.03;;
38529;SDS011;24301;54.332;48.386;2023-12-20T02:50:53;1.17;;;0.90;;
38529;SDS011;24301;54.332;48.386;2023-12-20T02:53:20;1.73;;;1.00;;
38529;SDS011;24301;54.332;48.386;2023-12-20T02:55:46;1.00;;;0.90;;
38529;SDS011;24301;54.332;48.386;2023-12-20T02:58:12;1.50;;;0.80;;
38529;SDS011;24301;54.332;48.386;2023-12-20T03:00:38;0.80;;;0.80;;
38529;SDS011;24301;54.332;48.386;2023-12-20T03:03:04;0.97;;;0.87;;
38529;SDS011;24301;54.332;48.386;2023-12-20T03:05:30;1.03;;;0.93;;
38529;SDS011;24301;54.332;48.386;2023-12-20T03:07:55;0.93;;;0.93;;
38529;SDS011;24301;54.332;48.386;2023-12-20T03:10:21;2.63;;;1.30;;
38529;SDS011;24301;54.332;48.386;2023-12-20T03:12:47;1.60;;;1.10;;
38529;SDS011;24301;54.332;48.386;2023-12-20T03:15:13;3.33;;;1.20;;
38529;SDS011;24301;54.332;48.386;2023-12-20T03:17:39;2.10;;;1.20;;
38529;SDS011;24301;54.332;48.386;2023-12-20T03:20:05;3.43;;;1.77;;
38529;SDS011;24301;54.332;48.386;2023-12-20T03:22:32;2.97;;;2.03;;
38529;SDS011;24301;54.332;48.386;2023-12-20T03:24:57;2.03;;;1.27;;
38529;SDS011;24301;54.332;48.386;2023-12-20T03:27:23;2.67;;;1.50;;
38529;SDS011;24301;54.332;48.386;2023-12-20T03:29:49;1.67;;;1.20;;
38529;SDS011;24301;54.332;48.386;2023-12-20T03:32:15;1.30;;;1.00;;
38529;SDS011;24301;54.332;48.386;2023-12-20T03:34:41;2.03;;;1.13;;
38529;SDS011;24301;54.332;48.386;2023-12-20T03:37:07;4.00;;;1.37;;
38529;SDS011;24301;54.332;48.386;2023-12-20T03:39:33;1.93;;;1.07;;
38529;SDS011;24301;54.332;48.386;2023-12-20T03:41:59;2.77;;;1.10;;
38529;SDS011;24301;54.332;48.386;2023-12-20T03:44:25;3.50;;;1.57;;
38529;SDS011;24301;54.332;48.386;2023-12-20T03:46:51;3.00;;;1.30;;
38529;SDS011;24301;54.332;48.386;2023-12-20T03:49:17;2.77;;;1.50;;
38529;SDS011;24301;54.332;48.386;2023-12-20T03:51:43;2.83;;;1.10;;
38529;SDS011;24301;54.332;48.386;2023-12-20T03:54:09;1.13;;;1.03;;
38529;SDS011;24301;54.332;48.386;2023-12-20T03:56:34;3.53;;;1.13;;
38529;SDS011;24301;54.332;48.386;2023-12-20T03:59:00;8.33;;;2.17;;
38529;SDS011;24301;54.332;48.386;2023-12-20T04:01:26;4.63;;;1.13;;
38529;SDS011;24301;54.332;48.386;2023-12-20T04:03:52;2.30;;;1.80;;
38529;SDS011;24301;54.332;48.386;2023-12-20T04:06:18;1.60;;;1.30;;
38529;SDS011;24301;54.332;48.386;2023-12-20T04:08:44;2.90;;;1.77;;
38529;SDS011;24301;54.332;48.386;2023-12-20T04:11:10;3.03;;;1.90;;
38529;SDS011;24301;54.332;48.386;2023-12-20T04:13:36;3.83;;;2.30;;
38529;SDS011;24301;54.332;48.386;2023-12-20T04:16:02;5.30;;;2.20;;
38529;SDS011;24301;54.332;48.386;2023-12-20T04:18:28;3.57;;;1.93;;
38529;SDS011;24301;54.332;48.386;2023-12-20T04:20:54;4.97;;;2.70;;
38529;SDS011;24301;54.332;48.386;2023-12-20T04:23:20;5.07;;;2.47;;
38529;SDS011;24301;54.332;48.386;2023-12-20T04:25:46;10.87;;;3.77;;
38529;SDS011;24301;54.332;48.386;2023-12-20T04:28:12;6.23;;;3.10;;
38529;SDS011;24301;54.332;48.386;2023-12-20T04:30:38;7.43;;;3.97;;
38529;SDS011;24301;54.332;48.386;2023-12-20T04:33:04;10.27;;;3.17;;
38529;SDS011;24301;54.332;48.386;2023-12-20T04:35:30;7.33;;;2.87;;
38529;SDS011;24301;54.332;48.386;2023-12-20T04:37:56;9.30;;;3.90;;
38529;SDS011;24301;54.332;48.386;2023-12-20T04:40:22;9.83;;;4.57;;
38529;SDS011;24301;54.332;48.386;2023-12-20T04:42:48;6.80;;;3.60;;
38529;SDS011;24301;54.332;48.386;2023-12-20T04:45:14;7.87;;;3.23;;
38529;SDS011;24301;54.332;48.386;2023-12-20T04:47:42;6.43;;;3.17;;
38529;SDS011;24301;54.332;48.386;2023-12-20T04:50:08;2.40;;;1.63;;
38529;SDS011;24301;54.332;48.386;2023-12-20T04:52:35;2.27;;;1.50;;
38529;SDS011;24301;54.332;48.386;2023-12-20T04:55:01;2.53;;;1.87;;
38529;SDS011;24301;54.332;48.386;2023-12-20T04:57:28;2.03;;;1.37;;
38529;SDS011;24301;54.332;48.386;2023-12-20T04:59:54;1.93;;;1.13;;
38529;SDS011;24301;54.332;48.386;2023-12-20T05:02:20;2.70;;;1.10;;
38529;SDS011;24301;54.332;48.386;2023-12-20T05:04:46;3.10;;;1.27;;
38529;SDS011;24301;54.332;48.386;2023-12-20T05:07:12;2.17;;;1.40;;
38529;SDS011;24301;54.332;48.386;2023-12-20T05:09:38;4.73;;;1.90;;
38529;SDS011;24301;54.332;48.386;2023-12-20T05:12:04;4.77;;;2.80;;
38529;SDS011;24301;54.332;48.386;2023-12-20T05:14:31;5.67;;;2.00;;
38529;SDS011;24301;54.332;48.386;2023-12-20T05:16:56;7.53;;;3.53;;
38529;SDS011;24301;54.332;48.386;2023-12-20T05:19:22;6.27;;;2.93;;
38529;SDS011;24301;54.332;48.386;2023-12-20T05:21:48;7.43;;;3.77;;
38529;SDS011;24301;54.332;48.386;2023-12-20T05:24:15;7.93;;;4.03;;
38529;SDS011;24301;54.332;48.386;2023-12-20T05:26:41;10.37;;;5.17;;
38529;SDS011;24301;54.332;48.386;2023-12-20T05:29:07;13.10;;;6.77;;
38529;SDS011;24301;54.332;48.386;2023-12-20T05:31:32;12.47;;;5.97;;
38529;SDS011;24301;54.332;48.386;2023-12-20T05:33:58;12.70;;;5.03;;
38529;SDS011;24301;54.332;48.386;2023-12-20T05:36:25;14.70;;;5.73;;
38529;SDS011;24301;54.332;48.386;2023-12-20T05:38:51;11.37;;;6.20;;
38529;SDS011;24301;54.332;48.386;2023-12-20T05:41:17;12.57;;;5.80;;
38529;SDS011;24301;54.332;48.386;2023-12-20T05:43:43;7.87;;;3.63;;
38529;SDS011;24301;54.332;48.386;2023-12-20T05:46:11;6.33;;;3.53;;
38529;SDS011;24301;54.332;48.386;2023-12-20T05:48:37;7.40;;;3.33;;
38529;SDS011;24301;54.332;48.386;2023-12-20T05:51:03;7.53;;;3.53;;
38529;SDS011;24301;54.332;48.386;2023-12-20T05:53:29;7.30;;;2.50;;
38529;SDS011;24301;54.332;48.386;2023-12-20T05:55:55;7.00;;;2.67;;
38529;SDS011;24301;54.332;48.386;2023-12-20T05:58:21;4.20;;;2.23;;
38529;SDS011;24301;54.332;48.386;2023-12-20T06:00:47;6.87;;;2.40;;
38529;SDS011;24301;54.332;48.386;2023-12-20T06:03:14;5.57;;;2.60;;
38529;SDS011;24301;54.332;48.386;2023-12-20T06:05:40;4.50;;;2.57;;
38529;SDS011;24301;54.332;48.386;2023-12-20T06:08:06;2.80;;;1.93;;
38529;SDS011;24301;54.332;48.386;2023-12-20T06:10:32;4.47;;;2.03;;
38529;SDS011;24301;54.332;48.386;2023-12-20T06:12:58;4.40;;;2.43;;
38529;SDS011;24301;54.332;48.386;2023-12-20T06:15:26;3.17;;;2.00;;
38529;SDS011;24301;54.332;48.386;2023-12-20T06:17:52;4.03;;;1.93;;
38529;SDS011;24301;54.332;48.386;2023-12-20T06:20:18;4.60;;;2.07;;
38529;SDS011;24301;54.332;48.386;2023-12-20T06:22:44;3.60;;;1.70;;
38529;SDS011;24301;54.332;48.386;2023-12-20T06:25:10;2.30;;;2.00;;
38529;SDS011;24301;54.332;48.386;2023-12-20T06:27:36;3.03;;;1.60;;
38529;SDS011;24301;54.332;48.386;2023-12-20T06:30:02;5.63;;;2.03;;
38529;SDS011;24301;54.332;48.386;2023-12-20T06:32:30;5.83;;;1.80;;
38529;SDS011;24301;54.332;48.386;2023-12-20T06:34:56;5.60;;;1.87;;
38529;SDS011;24301;54.332;48.386;2023-12-20T06:37:22;4.77;;;1.90;;
38529;SDS011;24301;54.332;48.386;2023-12-20T06:39:48;4.53;;;2.00;;
38529;SDS011;24301;54.332;48.386;2023-12-20T06:42:14;2.60;;;1.77;;
38529;SDS011;24301;54.332;48.386;2023-12-20T06:44:40;2.40;;;1.70;;
38529;SDS011;24301;54.332;48.386;2023-12-20T06:47:06;4.43;;;1.73;;
38529;SDS011;24301;54.332;48.386;2023-12-20T06:49:33;2.17;;;1.60;;
38529;SDS011;24301;54.332;48.386;2023-12-20T06:51:59;2.73;;;1.73;;
38529;SDS011;24301;54.332;48.386;2023-12-20T06:54:25;2.17;;;1.50;;
38529;SDS011;24301;54.332;48.386;2023-12-20T06:56:51;2.20;;;1.57;;
38529;SDS011;24301;54.332;48.386;2023-12-20T06:59:17;2.30;;;1.57;;
38529;SDS011;24301;54.332;48.386;2023-12-20T07:01:45;1.80;;;1.40;;
38529;SDS011;24301;54.332;48.386;2023-12-20T07:04:13;2.47;;;1.50;;
38529;SDS011;24301;54.332;48.386;2023-12-20T07:06:39;2.13;;;1.37;;
38529;SDS011;24301;54.332;48.386;2023-12-20T07:09:05;2.23;;;1.00;;
38529;SDS011;24301;54.332;48.386;2023-12-20T07:11:31;1.33;;;1.20;;
38529;SDS011;24301;54.332;48.386;2023-12-20T07:13:57;1.30;;;1.20;;
38529;SDS011;24301;54.332;48.386;2023-12-20T07:16:23;1.50;;;1.30;;
38529;SDS011;24301;54.332;48.386;2023-12-20T07:18:50;1.97;;;1.40;;
38529;SDS011;24301;54.332;48.386;2023-12-20T07:21:17;2.50;;;1.40;;
38529;SDS011;24301;54.332;48.386;2023-12-20T07:23:44;3.00;;;1.80;;
38529;SDS011;24301;54.332;48.386;2023-12-20T07:26:10;2.03;;;1.40;;
38529;SDS011;24301;54.332;48.386;2023-12-20T07:28:36;1.47;;;1.17;;
38529;SDS011;24301;54.332;48.386;2023-12-20T07:31:02;2.10;;;1.37;;
38529;SDS011;24301;54.332;48.386;2023-12-20T07:33:28;4.13;;;2.53;;
38529;SDS011;24301;54.332;48.386;2023-12-20T07:35:54;2.37;;;1.80;;
38529;SDS011;24301;54.332;48.386;2023-12-20T07:38:20;3.40;;;2.13;;
38529;SDS011;24301;54.332;48.386;2023-12-20T07:40:46;4.40;;;2.10;;
38529;SDS011;24301;54.332;48.386;2023-12-20T07:43:12;6.33;;;3.60;;
38529;SDS011;24301;54.332;48.386;2023-12-20T07:45:38;5.60;;;2.63;;
38529;SDS011;24301;54.332;48.386;2023-12-20T07:48:04;4.27;;;2.00;;
38529;SDS011;24301;54.332;48.386;2023-12-20T07:50:31;6.40;;;2.40;;
38529;SDS011;24301;54.332;48.386;2023-12-20T07:52:56;3.37;;;2.30;;
38529;SDS011;24301;54.332;48.386;2023-12-20T07:55:25;2.27;;;1.70;;
38529;SDS011;24301;54.332;48.386;2023-12-20T07:57:50;2.43;;;1.63;;
38529;SDS011;24301;54.332;48.386;2023-12-20T08:00:17;1.70;;;1.30;;
38529;SDS011;24301;54.332;48.386;2023-12-20T08:02:43;2.00;;;1.50;;
38529;SDS011;24301;54.332;48.386;2023-12-20T08:05:09;1.60;;;1.50;;
38529;SDS011;24301;54.332;48.386;2023-12-20T08:07:35;2.80;;;1.60;;
38529;SDS011;24301;54.332;48.386;2023-12-20T08:10:01;1.77;;;1.43;;
38529;SDS011;24301;54.332;48.386;2023-12-20T08:12:27;3.30;;;2.37;;
38529;SDS011;24301;54.332;48.386;2023-12-20T08:14:53;5.60;;;2.07;;
38529;SDS011;24301;54.332;48.386;2023-12-20T08:17:20;4.77;;;2.17;;
38529;SDS011;24301;54.332;48.386;2023-12-20T08:19:46;5.40;;;2.47;;
38529;SDS011;24301;54.332;48.386;2023-12-20T08:22:12;4.87;;;2.43;;
38529;SDS011;24301;54.332;48.386;2023-12-20T08:24:37;5.50;;;2.83;;
38529;SDS011;24301;54.332;48.386;2023-12-20T08:27:04;6.63;;;3.53;;
38529;SDS011;24301;54.332;48.386;2023-12-20T08:29:30;4.83;;;3.13;;
38529;SDS011;24301;54.332;48.386;2023-12-20T08:31:56;8.40;;;5.17;;
38529;SDS011;24301;54.332;48.386;2023-12-20T08:34:23;15.63;;;5.97;;
38529;SDS011;24301;54.332;48.386;2023-12-20T08:36:51;12.20;;;3.63;;
38529;SDS011;24301;54.332;48.386;2023-12-20T08:39:17;10.97;;;4.07;;
38529;SDS011;24301;54.332;48.386;2023-12-20T08:41:43;7.37;;;3.57;;
38529;SDS011;24301;54.332;48.386;2023-12-20T08:44:09;7.27;;;3.93;;
38529;SDS011;24301;54.332;48.386;2023-12-20T08:46:35;6.93;;;3.80;;
38529;SDS011;24301;54.332;48.386;2023-12-20T08:49:02;9.40;;;4.43;;
38529;SDS011;24301;54.332;48.386;2023-12-20T08:51:28;14.90;;;6.33;;
38529;SDS011;24301;54.332;48.386;2023-12-20T08:53:54;13.67;;;6.03;;
38529;SDS011;24301;54.332;48.386;2023-12-20T08:56:20;7.30;;;2.93;;
38529;SDS011;24301;54.332;48.386;2023-12-20T08:58:46;7.60;;;2.97;;
38529;SDS011;24301;54.332;48.386;2023-12-20T09:01:12;5.53;;;2.17;;
38529;SDS011;24301;54.332;48.386;2023-12-20T09:03:39;4.10;;;2.53;;
38529;SDS011;24301;54.332;48.386;2023-12-20T09:06:05;3.53;;;2.00;;
38529;SDS011;24301;54.332;48.386;2023-12-20T09:08:32;2.33;;;1.50;;
38529;SDS011;24301;54.332;48.386;2023-12-20T09:10:58;2.30;;;1.80;;
38529;SDS011;24301;54.332;48.386;2023-12-20T09:13:24;3.33;;;1.83;;
38529;SDS011;24301;54.332;48.386;2023-12-20T09:15:54;1.40;;;1.30;;
38529;SDS011;24301;54.332;48.386;2023-12-20T09:18:21;1.40;;;1.30;;
38529;SDS011;24301;54.332;48.386;2023-12-20T09:20:47;1.40;;;1.30;;
38529;SDS011;24301;54.332;48.386;2023-12-20T09:23:13;1.53;;;1.40;;
38529;SDS011;24301;54.332;48.386;2023-12-20T09:25:39;1.63;;;1.43;;
38529;SDS011;24301;54.332;48.386;2023-12-20T09:28:05;1.80;;;1.70;;
38529;SDS011;24301;54.332;48.386;2023-12-20T09:30:31;3.87;;;2.00;;
38529;SDS011;24301;54.332;48.386;2023-12-20T09:32:57;2.40;;;1.40;;
38529;SDS011;24301;54.332;48.386;2023-12-20T09:35:23;3.07;;;1.70;;
38529;SDS011;24301;54.332;48.386;2023-12-20T09:37:49;4.83;;;1.87;;
38529;SDS011;24301;54.332;48.386;2023-12-20T09:40:17;3.03;;;1.90;;
38529;SDS011;24301;54.332;48.386;2023-12-20T09:42:53;2.20;;;1.80;;
38529;SDS011;24301;54.332;48.386;2023-12-20T09:45:23;3.07;;;2.23;;
38529;SDS011;24301;54.332;48.386;2023-12-20T09:47:50;3.17;;;2.00;;
38529;SDS011;24301;54.332;48.386;2023-12-20T09:50:19;1.90;;;1.40;;
38529;SDS011;24301;54.332;48.386;2023-12-20T09:52:50;2.17;;;1.90;;
38529;SDS011;24301;54.332;48.386;2023-12-20T09:55:17;2.07;;;1.27;;
38529;SDS011;24301;54.332;48.386;2023-12-20T09:57:47;2.33;;;1.50;;
38529;SDS011;24301;54.332;48.386;2023-12-20T10:00:14;4.30;;;1.40;;
38529;SDS011;24301;54.332;48.386;2023-12-20T10:02:50;2.43;;;2.17;;
38529;SDS011;24301;54.332;48.386;2023-12-20T10:05:26;2.70;;;1.60;;
38529;SDS011;24301;54.332;48.386;2023-12-20T10:07:57;2.20;;;2.00;;
38529;SDS011;24301;54.332;48.386;2023-12-20T10:10:25;2.60;;;2.40;;
38529;SDS011;24301;54.332;48.386;2023-12-20T10:13:07;1.90;;;1.70;;
38529;SDS011;24301;54.332;48.386;2023-12-20T10:15:37;2.57;;;1.90;;
38529;SDS011;24301;54.332;48.386;2023-12-20T10:18:04;4.87;;;2.87;;
38529;SDS011;24301;54.332;48.386;2023-12-20T10:20:30;3.03;;;2.47;;
38529;SDS011;24301;54.332;48.386;2023-12-20T10:22:57;3.80;;;2.77;;
38529;SDS011;24301;54.332;48.386;2023-12-20T10:25:24;4.50;;;2.50;;
38529;SDS011;24301;54.332;48.386;2023-12-20T10:30:38;5.73;;;3.50;;
38529;SDS011;24301;54.332;48.386;2023-12-20T10:33:08;4.03;;;2.80;;
38529;SDS011;24301;54.332;48.386;2023-12-20T10:35:35;5.50;;;2.67;;
38529;SDS011;24301;54.332;48.386;2023-12-20T10:38:04;3.83;;;2.60;;
38529;SDS011;24301;54.332;48.386;2023-12-20T10:40:31;3.63;;;2.70;;
38529;SDS011;24301;54.332;48.386;2023-12-20T10:43:02;4.67;;;2.77;;
38529;SDS011;24301;54.332;48.386;2023-12-20T10:45:29;4.67;;;3.17;;
38529;SDS011;24301;54.332;48.386;2023-12-20T10:47:55;4.77;;;4.27;;
38529;SDS011;24301;54.332;48.386;2023-12-20T10:50:22;6.37;;;4.17;;
38529;SDS011;24301;54.332;48.386;2023-12-20T10:52:47;5.10;;;3.40;;
38529;SDS011;24301;54.332;48.386;2023-12-20T10:55:24;4.65;;;2.95;;
38529;SDS011;24301;54.332;48.386;2023-12-20T10:57:51;3.10;;;2.60;;
38529;SDS011;24301;54.332;48.386;2023-12-20T11:00:18;3.67;;;2.67;;
38529;SDS011;24301;54.332;48.386;2023-12-20T11:02:46;5.10;;;2.80;;
38529;SDS011;24301;54.332;48.386;2023-12-20T11:05:22;3.97;;;2.83;;
38529;SDS011;24301;54.332;48.386;2023-12-20T11:07:51;5.13;;;2.60;;
38529;SDS011;24301;54.332;48.386;2023-12-20T11:13:54;4.32;;;3.00;;
38529;SDS011;24301;54.332;48.386;2023-12-20T11:16:22;2.80;;;2.30;;
38529;SDS011;24301;54.332;48.386;2023-12-20T11:18:50;2.63;;;2.00;;
38529;SDS011;24301;54.332;48.386;2023-12-20T11:21:16;3.10;;;2.20;;
38529;SDS011;24301;54.332;48.386;2023-12-20T11:23:42;4.83;;;3.43;;
38529;SDS011;24301;54.332;48.386;2023-12-20T11:26:08;4.33;;;2.60;;
38529;SDS011;24301;54.332;48.386;2023-12-20T11:28:34;3.53;;;3.00;;
38529;SDS011;24301;54.332;48.386;2023-12-20T11:31:01;3.83;;;2.70;;
38529;SDS011;24301;54.332;48.386;2023-12-20T11:33:37;3.70;;;2.83;;
38529;SDS011;24301;54.332;48.386;2023-12-20T11:36:06;2.50;;;2.20;;
38529;SDS011;24301;54.332;48.386;2023-12-20T11:38:56;4.67;;;3.03;;
38529;SDS011;24301;54.332;48.386;2023-12-20T11:41:23;3.20;;;2.70;;
38529;SDS011;24301;54.332;48.386;2023-12-20T11:43:50;2.83;;;2.30;;
38529;SDS011;24301;54.332;48.386;2023-12-20T11:46:18;4.13;;;2.63;;
38529;SDS011;24301;54.332;48.386;2023-12-20T11:48:44;4.50;;;2.60;;
38529;SDS011;24301;54.332;48.386;2023-12-20T11:51:11;5.33;;;2.70;;
38529;SDS011;24301;54.332;48.386;2023-12-20T11:53:41;4.40;;;2.80;;
38529;SDS011;24301;54.332;48.386;2023-12-20T11:56:08;7.60;;;3.93;;
38529;SDS011;24301;54.332;48.386;2023-12-20T11:58:35;9.27;;;4.83;;
38529;SDS011;24301;54.332;48.386;2023-12-20T12:01:02;6.13;;;4.00;;
38529;SDS011;24301;54.332;48.386;2023-12-20T12:03:28;8.50;;;4.40;;
38529;SDS011;24301;54.332;48.386;2023-12-20T12:05:54;8.47;;;5.33;;
38529;SDS011;24301;54.332;48.386;2023-12-20T12:08:20;11.00;;;6.17;;
38529;SDS011;24301;54.332;48.386;2023-12-20T12:10:45;10.87;;;5.33;;
38529;SDS011;24301;54.332;48.386;2023-12-20T12:13:11;9.43;;;5.10;;
38529;SDS011;24301;54.332;48.386;2023-12-20T12:15:39;9.17;;;5.07;;
38529;SDS011;24301;54.332;48.386;2023-12-20T12:18:08;8.07;;;4.87;;
38529;SDS011;24301;54.332;48.386;2023-12-20T12:20:34;6.10;;;3.67;;
38529;SDS011;24301;54.332;48.386;2023-12-20T12:23:00;6.07;;;3.50;;
38529;SDS011;24301;54.332;48.386;2023-12-20T12:25:29;3.87;;;2.77;;
38529;SDS011;24301;54.332;48.386;2023-12-20T12:27:57;4.87;;;3.10;;
38529;SDS011;24301;54.332;48.386;2023-12-20T12:30:24;4.20;;;3.20;;
38529;SDS011;24301;54.332;48.386;2023-12-20T12:32:53;4.33;;;3.10;;
38529;SDS011;24301;54.332;48.386;2023-12-20T12:35:20;3.97;;;3.00;;
38529;SDS011;24301;54.332;48.386;2023-12-20T12:37:46;4.87;;;3.43;;
38529;SDS011;24301;54.332;48.386;2023-12-20T12:40:13;3.37;;;3.07;;
38529;SDS011;24301;54.332;48.386;2023-12-20T12:43:09;3.83;;;2.90;;
38529;SDS011;24301;54.332;48.386;2023-12-20T12:45:50;3.60;;;2.83;;
38529;SDS011;24301;54.332;48.386;2023-12-20T12:48:16;3.17;;;2.40;;
38529;SDS011;24301;54.332;48.386;2023-12-20T12:50:46;2.50;;;2.30;;
38529;SDS011;24301;54.332;48.386;2023-12-20T12:53:17;4.17;;;2.80;;
38529;SDS011;24301;54.332;48.386;2023-12-20T12:58:52;3.83;;;3.17;;
38529;SDS011;24301;54.332;48.386;2023-12-20T13:01:20;3.33;;;2.40;;
38529;SDS011;24301;54.332;48.386;2023-12-20T13:03:46;3.33;;;2.57;;
38529;SDS011;24301;54.332;48.386;2023-12-20T13:06:13;2.97;;;2.07;;
38529;SDS011;24301;54.332;48.386;2023-12-20T13:08:54;2.47;;;2.27;;
38529;SDS011;24301;54.332;48.386;2023-12-20T13:11:22;2.40;;;2.17;;
38529;SDS011;24301;54.332;48.386;2023-12-20T13:13:59;2.80;;;2.33;;
38529;SDS011;24301;54.332;48.386;2023-12-20T13:16:46;5.20;;;2.60;;
38529;SDS011;24301;54.332;48.386;2023-12-20T13:19:12;3.90;;;2.60;;
38529;SDS011;24301;54.332;48.386;2023-12-20T13:21:38;3.40;;;2.20;;
38529;SDS011;24301;54.332;48.386;2023-12-20T13:24:05;2.83;;;2.17;;
38529;SDS011;24301;54.332;48.386;2023-12-20T13:26:36;3.33;;;2.40;;
38529;SDS011;24301;54.332;48.386;2023-12-20T13:29:03;3.80;;;2.83;;
38529;SDS011;24301;54.332;48.386;2023-12-20T13:31:41;3.83;;;2.70;;
38529;SDS011;24301;54.332;48.386;2023-12-20T13:34:07;5.10;;;3.33;;
38529;SDS011;24301;54.332;48.386;2023-12-20T13:36:38;7.07;;;3.63;;
38529;SDS011;24301;54.332;48.386;2023-12-20T13:39:04;3.93;;;2.83;;
38529;SDS011;24301;54.332;48.386;2023-12-20T13:41:31;5.97;;;2.83;;
38529;SDS011;24301;54.332;48.386;2023-12-20T13:44:02;4.00;;;2.50;;
38529;SDS011;24301;54.332;48.386;2023-12-20T13:46:29;4.97;;;2.90;;
38529;SDS011;24301;54.332;48.386;2023-12-20T13:48:55;3.53;;;2.23;;
38529;SDS011;24301;54.332;48.386;2023-12-20T13:51:21;7.13;;;2.50;;
38529;SDS011;24301;54.332;48.386;2023-12-20T13:53:47;3.63;;;2.97;;
38529;SDS011;24301;54.332;48.386;2023-12-20T13:56:15;4.10;;;2.93;;
38529;SDS011;24301;54.332;48.386;2023-12-20T13:58:57;6.25;;;4.13;;
38529;SDS011;24301;54.332;48.386;2023-12-20T14:01:23;6.07;;;2.60;;
38529;SDS011;24301;54.332;48.386;2023-12-20T14:03:49;4.90;;;2.60;;
38529;SDS011;24301;54.332;48.386;2023-12-20T14:06:21;4.20;;;2.60;;
38529;SDS011;24301;54.332;48.386;2023-12-20T14:08:47;5.20;;;2.97;;
38529;SDS011;24301;54.332;48.386;2023-12-20T14:11:13;4.10;;;2.87;;
38529;SDS011;24301;54.332;48.386;2023-12-20T14:13:41;3.73;;;2.20;;
38529;SDS011;24301;54.332;48.386;2023-12-20T14:16:09;3.63;;;2.17;;
38529;SDS011;24301;54.332;48.386;2023-12-20T14:18:36;3.10;;;2.37;;
38529;SDS011;24301;54.332;48.386;2023-12-20T14:21:02;3.13;;;2.30;;
38529;SDS011;24301;54.332;48.386;2023-12-20T14:23:28;5.57;;;2.97;;
38529;SDS011;24301;54.332;48.386;2023-12-20T14:25:54;8.67;;;3.47;;
38529;SDS011;24301;54.332;48.386;2023-12-20T14:28:21;4.00;;;3.57;;
38529;SDS011;24301;54.332;48.386;2023-12-20T14:30:47;2.40;;;2.20;;
38529;SDS011;24301;54.332;48.386;2023-12-20T14:33:18;2.90;;;2.60;;
38529;SDS011;24301;54.332;48.386;2023-12-20T14:35:53;5.20;;;2.60;;
38529;SDS011;24301;54.332;48.386;2023-12-20T14:38:25;4.30;;;2.73;;
38529;SDS011;24301;54.332;48.386;2023-12-20T14:40:51;6.10;;;3.00;;
38529;SDS011;24301;54.332;48.386;2023-12-20T14:43:24;4.23;;;2.60;;
38529;SDS011;24301;54.332;48.386;2023-12-20T14:46:11;2.77;;;2.20;;